Twr-841 — NAVY841 — position and weather

sailwx.info

Track history (hours):
 
Tides and Currents Weather Stations Pressure Air Temp Water Temp Dewpoint Dewpoint Depression Visibility Wind Speed Wind Dir Waves Ship Positions

Twr-841

Last reported at 2016-Dec-08 06:33 UTC. Time now 2017-May-26 16:55 UTC.
Position N 39°51' W 074°02'.
Warning: this ship's position is months out of date.

Length 39 m.

Type: Military. MMSI: 369970385.

Date/timePositionNaut miles runAvg speedWind from/ knotsBaromVisibWave heightAir tempDewpointWater temp
2016-Dec-08 06:33N 39°51' W 074°02'1010.3
2016-Dec-08 05:33N 39°41' W 074°05'1110.6
2016-Dec-08 04:33N 39°31' W 074°11'54 7.3
2016-Dec-07 21:09N 39°06' W 075°12'610.6
2016-Dec-07 20:33N 39°12' W 075°17'10 9.6
2016-Dec-07 19:33N 39°19' W 075°24'10 9.7
2016-Dec-07 18:33N 39°27' W 075°33'7 7.3
2016-Dec-07 17:33N 39°33' W 075°36'10 9.9
2016-Dec-07 16:33N 39°32' W 075°49'1010.1
2016-Dec-07 15:34N 39°26' W 076°00'  
2016-Dec-02 10:32N 39°32' W 074°10'1010.0
2016-Dec-02 09:33N 39°41' W 074°05'1010.0
2016-Dec-02 08:33N 39°51' W 074°02'41 9.8
2016-Dec-02 04:21N 40°32' W 074°01'810.2
2016-Dec-02 03:32N 40°40' W 074°03'9 7.7
2016-Dec-02 02:24N 40°47' W 073°55'  
Track history (hours):
 
Tides and Currents Weather Stations Pressure Air Temp Water Temp Dewpoint Dewpoint Depression Visibility Wind Speed Wind Dir Waves Ship Positions

Twr-841

Last reported at 2016-Dec-08 06:33 UTC. Time now 2017-May-26 16:55 UTC.
Position N 39°51' W 074°02'.
Warning: this ship's position is months out of date.

Length 39 m.

Type: Military. MMSI: 369970385.

Date/timePositionNaut miles runAvg speedWind from/ knotsBaromVisibWave heightAir tempDewpointWater temp
2016-Dec-08 06:33N 39°51' W 074°02'1010.3
2016-Dec-08 05:33N 39°41' W 074°05'1110.6
2016-Dec-08 04:33N 39°31' W 074°11'54 7.3
2016-Dec-07 21:09N 39°06' W 075°12'610.6
2016-Dec-07 20:33N 39°12' W 075°17'10 9.6
2016-Dec-07 19:33N 39°19' W 075°24'10 9.7
2016-Dec-07 18:33N 39°27' W 075°33'7 7.3
2016-Dec-07 17:33N 39°33' W 075°36'10 9.9
2016-Dec-07 16:33N 39°32' W 075°49'1010.1
2016-Dec-07 15:34N 39°26' W 076°00'  
2016-Dec-02 10:32N 39°32' W 074°10'1010.0
2016-Dec-02 09:33N 39°41' W 074°05'1010.0
2016-Dec-02 08:33N 39°51' W 074°02'41 9.8
2016-Dec-02 04:21N 40°32' W 074°01'810.2
2016-Dec-02 03:32N 40°40' W 074°03'9 7.7
2016-Dec-02 02:24N 40°47' W 073°55'  

Dump ship's entire track history